Terminal Aerodrome Forecast
Issued by NWS Buffalo, NY

Home | Current Version | Previous Version | Text Only | Print | Product List | Glossary On
Versions: 1 2 3 4 5 6 7 8 9 10 11 12 13 14 15 16 17 18 19 20 21 22 23 24 25 26 27
000
FTUS41 KBUF 180900 AAA
TAFROC
TAF AMD
KROC 180906Z 1809/1906 25004KT 6SM BR SCT040 SCT070
     FM181200 32005KT P6SM SCT025 BKN040
     FM181430 01010KT P6SM BKN015
     FM182200 03006KT P6SM SCT035
     FM190200 VRB03KT P6SM SCT200=

USA.gov is the U.S. government's official web portal to all federal, state and local government web resources and services.